Hobart, OK

7:49 AM CDT on September 22, 2019 (GMT -0500)
Hobart Municipal | | Change Station

Elev 1562 ft 34.99 °N, 99.05 °W | Updated 56 minutes ago

Mostly Cloudy
Mostly Cloudy
73 °F
Feels Like 73 °F
N
14
Wind Variable Wind from South

Today
High -- | Low -- °F
--% Chance of Precip.
Yesterday
High -- | Low -- °F
Precip. -- in
Pressure 29.89 in
Visibility 7.0 miles
Clouds Scattered Clouds 3700 ft
Mostly Cloudy 4400 ft
Mostly Cloudy 9000 ft
Dew Point 71 °F
Humidity 93%
Rainfall 0.57 in
Snow Depth Not available.
7:24 AM 7:33 PM
Last Quarter, 45% visible
METAR KHBR 221153Z AUTO 19012KT 7SM SCT037 BKN044 BKN090 23/22 A2994 RMK AO2 RAB00E40 SLP120 P0000 60024 70129 T02280217 10228 20222 51003
Pressure 29.89 in
Visibility 7.0 miles
Clouds Scattered Clouds 3700 ft
Mostly Cloudy 4400 ft
Mostly Cloudy 9000 ft
Dew Point 71 °F
Humidity 93%
Rainfall 0.57 in
Snow Depth Not available.
7:24 AM 7:33 PM
Last Quarter, 45% visible
METAR KHBR 221153Z AUTO 19012KT 7SM SCT037 BKN044 BKN090 23/22 A2994 RMK AO2 RAB00E40 SLP120 P0000 60024 70129 T02280217 10228 20222 51003

Get Severe Weather Alerts

Thanks for signing up!

Be on the lookout for a verification email in your inbox.

You'll start receiving the daily forecast at 6 AM.

×

10-Day Weather Forecast

Almanac

Astronomy

Sep. 22, 2019 Rise Set
Actual Time
Civil Twilight
Nautical Twilight
Astronomical Twilight
Moon
Length of Visible Light
Length of Day
Tomorrow will be .
, % of the Moon is Illuminated

Today's Extremes

State Highs State Lows

Community

WunderPhotos

Category 6

Welcome to Category 6. This is the collective home for Weather Underground's featured writeups by Dr. Jeff Masters (right), Bob Henson (left), Chris Burt, and other regular contributors.

Nearby

Air Quality

  Air Quality AQ Index Pollutant
Not available.

Snow Depth

Station Depth Elevation

Earthquake Activity

City Distance Mag. Time & Date
Minimum magnitude displayed is 2.5.

Coastal Water Temperatures

Place Temperature

Stations

Nearby Weather Stations

Station Location Temp. Windchill Dew Point Humidity Wind Precip. Elev Updated Type
                   

Watches & Warnings

There are currently no watches in effect.